Time;durP1;ratioP1;P1;durP2;ratioP2;P2;SDS_P1;SDS_P2;PMS_P1;PMS_P2;Temp;Humidity;BMP_temperature;BMP_pressure;BME280_temperature;BME280_humidity;BME280_pressure;Samples;Min_cycle;Max_cycle;Signal;HPM_P1;HPM_P2
2023/11/18 00:00:24;;;;;;;17.42;10.43;;;7.50;99.90;;;;;;5034236;28;20556;-53
2023/11/18 00:02:50;;;;;;;29.73;11.25;;;7.60;99.90;;;;;;5033942;28;20057;-54
2023/11/18 00:05:16;;;;;;;25.75;12.18;;;7.60;99.90;;;;;;5033484;28;20405;-53
2023/11/18 00:07:42;;;;;;;20.85;9.98;;;7.60;99.90;;;;;;5034324;28;20026;-54
2023/11/18 00:10:11;;;;;;;19.17;9.98;;;7.70;99.90;;;;;;5033969;28;20079;-54
2023/11/18 00:12:40;;;;;;;21.88;10.32;;;7.70;99.90;;;;;;5033939;28;20033;-52
2023/11/18 00:15:08;;;;;;;23.42;11.35;;;7.70;99.90;;;;;;5033863;28;20028;-54
2023/11/18 00:17:34;;;;;;;26.13;10.73;;;7.70;99.90;;;;;;5032595;28;20022;-54
2023/11/18 00:20:00;;;;;;;20.17;9.45;;;7.70;99.90;;;;;;5033659;28;20021;-53
2023/11/18 00:22:27;;;;;;;22.98;10.20;;;7.70;99.90;;;;;;5033419;28;20026;-54
2023/11/18 00:24:55;;;;;;;21.52;10.55;;;7.80;99.90;;;;;;5033225;28;20018;-52
2023/11/18 00:27:22;;;;;;;23.30;10.87;;;7.70;99.90;;;;;;5033477;28;20020;-55
2023/11/18 00:29:48;;;;;;;29.33;9.93;;;7.70;99.90;;;;;;5033407;28;20397;-53
2023/11/18 00:32:14;;;;;;;20.40;9.05;;;7.80;99.90;;;;;;5030622;28;20034;-52
2023/11/18 00:34:39;;;;;;;20.42;10.68;;;7.80;99.90;;;;;;5033312;28;20033;-51
2023/11/18 00:37:05;;;;;;;19.27;9.32;;;7.80;99.90;;;;;;5031878;28;20124;-53
2023/11/18 00:39:31;;;;;;;24.17;9.43;;;7.80;99.90;;;;;;5033382;28;20037;-54
2023/11/18 00:41:57;;;;;;;20.80;9.80;;;7.80;99.90;;;;;;5028910;28;20184;-59
2023/11/18 00:44:22;;;;;;;26.27;11.05;;;7.80;99.90;;;;;;5013434;28;20442;-56
2023/11/18 00:46:48;;;;;;;22.63;8.88;;;7.80;99.90;;;;;;5031487;28;20029;-58
2023/11/18 00:49:13;;;;;;;24.05;9.88;;;7.80;99.90;;;;;;5032745;28;20017;-55
2023/11/18 00:51:41;;;;;;;26.55;11.25;;;7.80;99.90;;;;;;5032633;28;20113;-53
2023/11/18 00:54:06;;;;;;;21.80;10.57;;;7.80;99.90;;;;;;5032973;28;20390;-54
2023/11/18 00:56:32;;;;;;;21.98;9.60;;;7.80;99.90;;;;;;5031913;28;20113;-53
2023/11/18 00:58:58;;;;;;;18.05;9.35;;;7.60;99.90;;;;;;5033212;28;20033;-56
2023/11/18 01:01:24;;;;;;;19.83;9.50;;;7.60;99.90;;;;;;5033211;28;20053;-56
2023/11/18 01:03:49;;;;;;;20.23;10.52;;;7.60;99.90;;;;;;5032630;28;20096;-55
2023/11/18 01:06:16;;;;;;;21.55;10.13;;;7.60;99.90;;;;;;5031979;28;20505;-56
2023/11/18 01:08:45;;;;;;;28.13;10.90;;;7.60;99.90;;;;;;5030920;28;20037;-54
2023/11/18 01:11:15;;;;;;;28.98;11.73;;;7.50;99.90;;;;;;5032792;28;20025;-51
2023/11/18 01:13:41;;;;;;;26.23;11.27;;;7.50;99.90;;;;;;5032688;28;20025;-54
2023/11/18 01:16:07;;;;;;;34.03;12.25;;;7.50;99.90;;;;;;5032398;28;20409;-53
2023/11/18 01:18:32;;;;;;;30.48;11.70;;;7.40;99.90;;;;;;5032461;28;20542;-55
2023/11/18 01:20:58;;;;;;;28.10;11.25;;;7.30;99.90;;;;;;5033142;28;20057;-55
2023/11/18 01:23:24;;;;;;;25.83;10.60;;;7.30;99.90;;;;;;5032709;28;20509;-55
2023/11/18 01:25:51;;;;;;;25.67;10.82;;;7.20;99.90;;;;;;5031359;28;20021;-54
2023/11/18 01:28:16;;;;;;;20.65;10.25;;;7.20;99.90;;;;;;5032717;28;20129;-52
2023/11/18 01:30:44;;;;;;;22.45;9.77;;;7.20;99.90;;;;;;5032768;28;20146;-53
2023/11/18 01:33:10;;;;;;;21.40;9.95;;;7.20;99.90;;;;;;5032970;28;20113;-60
2023/11/18 01:35:36;;;;;;;19.30;9.45;;;7.20;99.90;;;;;;5032751;28;20030;-54
2023/11/18 01:38:02;;;;;;;21.48;9.65;;;7.20;99.90;;;;;;5031254;28;20029;-53
2023/11/18 01:40:30;;;;;;;21.35;9.27;;;7.20;99.90;;;;;;5031363;28;20037;-54
2023/11/18 01:42:56;;;;;;;17.95;9.48;;;7.20;99.90;;;;;;5032323;28;20502;-54
2023/11/18 01:45:22;;;;;;;21.67;10.32;;;7.30;99.90;;;;;;5032675;28;20036;-54
2023/11/18 01:47:48;;;;;;;21.40;9.23;;;7.20;99.90;;;;;;5032644;28;20026;-58
2023/11/18 01:50:17;;;;;;;21.13;10.15;;;7.20;99.90;;;;;;5032635;28;20036;-54
2023/11/18 01:52:44;;;;;;;22.05;9.88;;;7.30;99.90;;;;;;5032632;28;20164;-52
2023/11/18 01:55:10;;;;;;;24.73;9.87;;;7.30;99.90;;;;;;5032260;28;20521;-52
2023/11/18 01:57:36;;;;;;;23.60;10.52;;;7.20;99.90;;;;;;5031957;28;20495;-54
2023/11/18 02:00:06;;;;;;;19.00;9.43;;;7.20;99.90;;;;;;5032067;28;20036;-51
2023/11/18 02:02:32;;;;;;;19.90;9.10;;;7.20;99.90;;;;;;5032080;28;20025;-55
2023/11/18 02:05:01;;;;;;;18.33;9.05;;;7.20;99.90;;;;;;5030906;28;20022;-52
2023/11/18 02:07:28;;;;;;;21.17;9.85;;;7.20;99.90;;;;;;5030937;28;20087;-53
2023/11/18 02:09:55;;;;;;;19.83;9.63;;;7.20;99.90;;;;;;5031882;28;20018;-54
2023/11/18 02:12:27;;;;;;;18.75;9.90;;;7.10;99.90;;;;;;5030605;28;20032;-51
2023/11/18 02:14:55;;;;;;;14.13;8.60;;;7.20;99.90;;;;;;5027942;28;20033;-54
2023/11/18 02:17:25;;;;;;;16.83;8.07;;;7.20;99.90;;;;;;5032128;28;20493;-55
2023/11/18 02:19:53;;;;;;;20.35;9.45;;;7.20;99.90;;;;;;5036100;28;20095;-55
2023/11/18 02:22:21;;;;;;;17.35;8.80;;;7.20;99.90;;;;;;5035567;28;20072;-54
2023/11/18 02:24:47;;;;;;;19.55;9.23;;;7.20;99.90;;;;;;5035673;28;20112;-55
2023/11/18 02:27:13;;;;;;;20.40;9.77;;;7.20;99.90;;;;;;5035735;28;20113;-55
2023/11/18 02:29:42;;;;;;;18.63;8.20;;;7.30;99.90;;;;;;5034747;28;20014;-56
2023/11/18 02:32:35;;;;;;;21.40;10.68;;;7.30;99.90;;;;;;5035797;28;20548;-54
2023/11/18 02:35:35;;;;;;;19.20;9.07;;;7.30;99.90;;;;;;5035229;28;20029;-52
2023/11/18 02:38:02;;;;;;;19.58;9.45;;;7.40;99.90;;;;;;5031714;28;20490;-56
2023/11/18 02:40:33;;;;;;;24.45;9.85;;;7.30;99.90;;;;;;5035379;28;20025;-54
2023/11/18 02:43:01;;;;;;;22.73;10.55;;;7.30;99.90;;;;;;5035062;28;20046;-54
2023/11/18 02:45:27;;;;;;;20.60;9.02;;;7.40;99.90;;;;;;5034660;28;20167;-53
2023/11/18 02:47:57;;;;;;;22.55;10.40;;;7.30;99.90;;;;;;5035685;28;20024;-54
2023/11/18 02:50:27;;;;;;;27.30;9.85;;;7.40;99.90;;;;;;5035014;28;20023;-55
2023/11/18 02:52:56;;;;;;;24.20;9.68;;;7.30;99.90;;;;;;5034640;28;20124;-55
2023/11/18 02:55:22;;;;;;;22.42;9.98;;;7.40;99.90;;;;;;5034975;28;20486;-55
2023/11/18 02:57:49;;;;;;;27.80;10.85;;;7.40;99.90;;;;;;5033976;28;20486;-53
2023/11/18 03:00:21;;;;;;;23.63;9.75;;;7.40;99.90;;;;;;5034963;28;20453;-55
2023/11/18 03:02:51;;;;;;;16.77;9.43;;;7.30;99.90;;;;;;5034842;28;20026;-53
2023/11/18 03:05:17;;;;;;;25.80;10.40;;;7.30;99.90;;;;;;5035063;28;20013;-55
2023/11/18 03:07:49;;;;;;;23.38;10.77;;;7.30;99.90;;;;;;5033089;28;20022;-55
2023/11/18 03:10:22;;;;;;;28.17;11.70;;;7.20;99.90;;;;;;5031458;28;20544;-55
2023/11/18 03:12:48;;;;;;;24.48;9.93;;;7.10;99.90;;;;;;5032852;28;20037;-54
2023/11/18 03:15:16;;;;;;;28.17;11.55;;;7.10;99.90;;;;;;5022994;28;20108;-54
2023/11/18 03:17:45;;;;;;;;;;;7.20;99.90;;;;;;5030982;28;20030;-55
2023/11/18 03:20:14;;;;;;;22.38;9.95;;;7.20;99.90;;;;;;5034858;28;20365;-53
2023/11/18 03:22:40;;;;;;;17.60;9.52;;;7.10;99.90;;;;;;5030379;28;20393;-52
2023/11/18 03:25:07;;;;;;;23.15;10.18;;;7.20;99.90;;;;;;5030504;28;20022;-51
2023/11/18 03:27:33;;;;;;;26.90;10.23;;;7.20;99.90;;;;;;5020702;28;20052;-54
2023/11/18 03:29:59;;;;;;;22.75;10.52;;;7.20;99.90;;;;;;5026628;28;20488;-52
2023/11/18 03:32:25;;;;;;;27.20;11.85;;;7.20;99.90;;;;;;5032421;28;20489;-55
2023/11/18 03:34:51;;;;;;;24.15;9.88;;;7.20;99.90;;;;;;5027600;28;20053;-54
2023/11/18 03:37:16;;;;;;;26.40;11.43;;;7.30;99.90;;;;;;5027447;28;20029;-54
2023/11/18 03:39:42;;;;;;;23.55;10.35;;;7.30;99.90;;;;;;5020627;28;20025;-52
2023/11/18 03:42:08;;;;;;;28.13;10.85;;;7.30;99.90;;;;;;5030000;28;20132;-54
2023/11/18 03:44:33;;;;;;;25.05;10.05;;;7.30;99.90;;;;;;5028401;28;20466;-54
2023/11/18 03:46:59;;;;;;;26.20;10.18;;;7.30;99.90;;;;;;5031890;28;20025;-52
2023/11/18 03:49:25;;;;;;;21.02;10.13;;;7.40;99.90;;;;;;5032672;28;20108;-57
2023/11/18 03:51:51;;;;;;;16.77;9.65;;;7.30;99.90;;;;;;5028192;28;20112;-49
2023/11/18 03:54:16;;;;;;;19.88;10.85;;;7.30;99.90;;;;;;5027622;28;20488;-56
2023/11/18 03:56:42;;;;;;;23.65;10.77;;;7.20;99.90;;;;;;5030960;28;20025;-54
2023/11/18 03:59:07;;;;;;;21.13;11.48;;;7.20;99.90;;;;;;5031329;28;20053;-51
2023/11/18 04:01:34;;;;;;;25.80;10.93;;;7.20;99.90;;;;;;5030253;28;20120;-51
2023/11/18 04:04:00;;;;;;;25.55;10.93;;;7.20;99.90;;;;;;5027124;28;20030;-53
2023/11/18 04:06:25;;;;;;;23.67;9.85;;;7.20;99.90;;;;;;5025006;28;20080;-49
2023/11/18 04:08:51;;;;;;;23.77;11.20;;;7.20;99.90;;;;;;5031729;28;20124;-55
2023/11/18 04:11:17;;;;;;;19.65;10.82;;;7.20;99.90;;;;;;5031531;28;20517;-55
2023/11/18 04:13:44;;;;;;;27.08;9.82;;;7.20;99.90;;;;;;5027597;28;20068;-53
2023/11/18 04:16:12;;;;;;;19.63;9.70;;;7.20;99.90;;;;;;5029392;28;20488;-54
2023/11/18 04:18:42;;;;;;;22.80;10.07;;;7.20;99.90;;;;;;5030505;28;20091;-54
2023/11/18 04:21:08;;;;;;;20.27;10.60;;;7.20;99.90;;;;;;5033680;28;20529;-54
2023/11/18 04:23:41;;;;;;;22.73;10.30;;;7.20;99.90;;;;;;5033501;28;20394;-53
2023/11/18 04:26:07;;;;;;;24.15;10.63;;;7.30;99.90;;;;;;5022663;28;20036;-54
2023/11/18 04:28:36;;;;;;;22.05;10.80;;;7.20;99.90;;;;;;5031714;28;20474;-53
2023/11/18 04:31:02;;;;;;;19.27;10.20;;;7.30;99.90;;;;;;5023678;28;20033;-54
2023/11/18 04:33:33;;;;;;;25.92;10.68;;;7.30;99.90;;;;;;5021092;28;20032;-54
2023/11/18 04:35:58;;;;;;;22.40;9.63;;;7.40;99.90;;;;;;5033628;28;20071;-55
2023/11/18 04:38:25;;;;;;;25.50;9.80;;;7.40;99.90;;;;;;5033228;28;20462;-53
2023/11/18 04:40:54;;;;;;;23.92;10.02;;;7.40;99.90;;;;;;5032411;28;20037;-55
2023/11/18 04:43:20;;;;;;;22.10;10.95;;;7.40;99.90;;;;;;5033262;28;20049;-55
2023/11/18 04:45:46;;;;;;;20.17;9.48;;;7.40;99.90;;;;;;5033190;28;20474;-53
2023/11/18 04:48:13;;;;;;;21.73;9.82;;;7.40;99.90;;;;;;5025594;28;20049;-55
2023/11/18 04:50:41;;;;;;;21.27;9.48;;;7.40;99.90;;;;;;5026480;28;20068;-55
2023/11/18 04:53:08;;;;;;;23.85;10.90;;;7.40;99.90;;;;;;5024206;28;20065;-54
2023/11/18 04:55:35;;;;;;;25.05;10.15;;;7.30;99.90;;;;;;5029054;28;20025;-54
2023/11/18 04:58:00;;;;;;;26.45;10.13;;;7.40;99.90;;;;;;5023549;28;20521;-48
2023/11/18 05:00:27;;;;;;;21.48;10.07;;;7.30;99.90;;;;;;5025422;28;20051;-49
2023/11/18 05:02:53;;;;;;;19.45;9.75;;;7.40;99.90;;;;;;5022579;28;20544;-54
2023/11/18 05:05:19;;;;;;;19.10;9.65;;;7.40;99.90;;;;;;5027738;28;20021;-55
2023/11/18 05:07:45;;;;;;;26.40;9.25;;;7.40;99.90;;;;;;5024436;28;20433;-56
2023/11/18 05:10:11;;;;;;;26.25;10.07;;;7.40;99.90;;;;;;5025449;28;20018;-54
2023/11/18 05:12:40;;;;;;;26.73;10.60;;;7.40;99.90;;;;;;5025195;28;20091;-50
2023/11/18 05:15:07;;;;;;;17.00;8.35;;;7.40;99.90;;;;;;5025383;28;20381;-48
2023/11/18 05:17:37;;;;;;;21.98;9.45;;;7.40;99.90;;;;;;5024371;28;20044;-55
2023/11/18 05:20:04;;;;;;;23.20;10.18;;;7.40;99.90;;;;;;5025326;28;20033;-58
2023/11/18 05:22:30;;;;;;;23.10;9.73;;;7.50;99.90;;;;;;5030344;28;20013;-55
2023/11/18 05:24:57;;;;;;;18.35;9.48;;;7.50;99.90;;;;;;5032784;28;20481;-52
2023/11/18 05:27:23;;;;;;;17.58;8.98;;;7.50;99.90;;;;;;5032691;28;20065;-53
2023/11/18 05:29:54;;;;;;;20.50;9.45;;;7.50;99.90;;;;;;5026101;28;20045;-54
2023/11/18 05:32:25;;;;;;;27.40;9.55;;;7.60;99.90;;;;;;5032435;28;20501;-53
2023/11/18 05:34:55;;;;;;;14.70;7.50;;;7.60;99.90;;;;;;5031352;28;20486;-54
2023/11/18 05:37:21;;;;;;;21.67;8.80;;;7.60;99.90;;;;;;5031868;28;20033;-55
2023/11/18 05:39:49;;;;;;;17.83;8.07;;;7.60;99.90;;;;;;5032227;28;20124;-53
2023/11/18 05:42:15;;;;;;;18.88;8.65;;;7.60;99.90;;;;;;5032377;28;20512;-53
2023/11/18 05:44:42;;;;;;;19.50;9.00;;;7.60;99.90;;;;;;5032276;28;20033;-54
2023/11/18 05:47:11;;;;;;;22.98;9.18;;;7.70;99.90;;;;;;5031373;28;20018;-55
2023/11/18 05:49:38;;;;;;;24.70;8.52;;;7.70;99.90;;;;;;5032466;28;20489;-55
2023/11/18 05:52:04;;;;;;;31.15;8.63;;;7.70;99.90;;;;;;5033813;28;20076;-54
2023/11/18 05:54:30;;;;;;;19.98;8.77;;;7.80;99.90;;;;;;5036394;28;20022;-54
2023/11/18 05:56:56;;;;;;;26.02;10.63;;;7.80;99.90;;;;;;5036484;28;20537;-52
2023/11/18 05:59:23;;;;;;;19.70;8.85;;;7.80;99.90;;;;;;5036773;28;20025;-54
2023/11/18 06:01:49;;;;;;;20.92;9.13;;;7.70;99.90;;;;;;5036210;28;20033;-55
2023/11/18 06:04:15;;;;;;;25.10;8.98;;;7.70;99.90;;;;;;5035506;28;20030;-57
2023/11/18 06:06:41;;;;;;;19.63;8.77;;;7.70;99.90;;;;;;5035791;28;20104;-54
2023/11/18 06:09:15;;;;;;;20.48;9.40;;;7.70;99.90;;;;;;5034007;28;20439;-53
2023/11/18 06:11:41;;;;;;;19.02;8.75;;;7.60;99.90;;;;;;5034564;28;20538;-55
2023/11/18 06:14:08;;;;;;;22.88;10.02;;;7.60;99.90;;;;;;5033405;28;20108;-55
2023/11/18 06:16:35;;;;;;;20.80;10.45;;;7.60;99.90;;;;;;5035830;28;20441;-52
2023/11/18 06:19:04;;;;;;;17.33;9.07;;;7.60;99.90;;;;;;5029638;28;20402;-52
2023/11/18 06:21:31;;;;;;;20.23;9.50;;;7.50;99.90;;;;;;5031339;28;20638;-52
2023/11/18 06:23:58;;;;;;;26.15;9.93;;;7.40;99.90;;;;;;5028273;28;20028;-53
2023/11/18 06:26:26;;;;;;;22.88;10.50;;;7.50;99.90;;;;;;5034004;28;20080;-53
2023/11/18 06:28:52;;;;;;;;;;;7.60;99.90;;;;;;5036240;28;20474;-52
2023/11/18 06:31:20;;;;;;;18.25;9.70;;;7.60;99.90;;;;;;5033747;28;19935;-54
2023/11/18 06:33:47;;;;;;;20.47;10.03;;;7.60;99.90;;;;;;5028116;28;20033;-54
2023/11/18 06:36:21;;;;;;;25.15;10.07;;;7.50;99.90;;;;;;5032344;28;20359;-53
2023/11/18 06:38:52;;;;;;;24.52;10.23;;;7.50;99.90;;;;;;5028520;28;20550;-55
2023/11/18 06:41:23;;;;;;;21.77;10.32;;;7.50;99.90;;;;;;5030583;28;20045;-56
2023/11/18 06:43:56;;;;;;;22.40;9.95;;;7.50;99.90;;;;;;5028941;28;20065;-54
2023/11/18 06:46:33;;;;;;;26.00;10.82;;;7.40;99.90;;;;;;5028267;28;20027;-53
2023/11/18 06:49:03;;;;;;;22.00;9.80;;;7.40;99.90;;;;;;5027761;28;20014;-51
2023/11/18 06:51:29;;;;;;;25.63;10.60;;;7.40;99.90;;;;;;5028004;28;20104;-55
2023/11/18 06:53:56;;;;;;;24.65;9.80;;;7.40;99.90;;;;;;5027920;28;20497;-53
2023/11/18 06:56:26;;;;;;;26.48;10.07;;;7.40;99.90;;;;;;5030090;28;20524;-51
2023/11/18 06:58:52;;;;;;;22.02;10.68;;;7.40;99.90;;;;;;5027275;28;20033;-52
2023/11/18 07:01:18;;;;;;;19.80;9.13;;;7.40;99.90;;;;;;5027917;28;20528;-54
2023/11/18 07:03:48;;;;;;;24.02;9.65;;;7.40;99.90;;;;;;5028160;28;20104;-54
2023/11/18 07:06:21;;;;;;;20.08;9.13;;;7.40;99.90;;;;;;5030755;28;20121;-54
2023/11/18 07:08:49;;;;;;;17.52;8.57;;;7.40;99.90;;;;;;5028755;28;20359;-55
2023/11/18 07:11:15;;;;;;;24.90;8.90;;;7.40;99.90;;;;;;5033955;28;20033;-53
2023/11/18 07:13:41;;;;;;;21.83;9.73;;;7.30;99.90;;;;;;5027681;28;20029;-54
2023/11/18 07:16:08;;;;;;;19.33;9.32;;;7.30;99.90;;;;;;5027248;28;20026;-54
2023/11/18 07:18:35;;;;;;;20.13;8.88;;;7.40;99.90;;;;;;5026198;28;20113;-55
2023/11/18 07:21:06;;;;;;;22.48;9.43;;;7.40;99.90;;;;;;5028834;28;20483;-54
2023/11/18 07:23:33;;;;;;;21.90;9.27;;;7.40;99.90;;;;;;5026017;28;20120;-51
2023/11/18 07:25:59;;;;;;;20.83;9.98;;;7.30;99.90;;;;;;5030740;28;20079;-55
2023/11/18 07:28:25;;;;;;;18.77;8.90;;;7.30;99.90;;;;;;5034624;28;20029;-60
2023/11/18 07:30:53;;;;;;;21.80;9.25;;;7.40;99.90;;;;;;5034924;28;20026;-55
2023/11/18 07:33:19;;;;;;;18.92;8.68;;;7.40;99.90;;;;;;5028939;28;20425;-53
2023/11/18 07:35:52;;;;;;;25.73;8.98;;;7.40;99.90;;;;;;5025408;28;20409;-55
2023/11/18 07:38:20;;;;;;;24.20;9.73;;;7.30;99.90;;;;;;5026348;28;20437;-55
2023/11/18 07:40:46;;;;;;;25.30;8.75;;;7.40;99.90;;;;;;5026490;28;20642;-53
2023/11/18 07:43:12;;;;;;;21.63;8.32;;;7.30;99.90;;;;;;5026569;28;20041;-50
2023/11/18 07:45:39;;;;;;;20.13;8.52;;;7.40;99.90;;;;;;5027116;28;20022;-55
2023/11/18 07:48:11;;;;;;;23.70;8.50;;;7.40;99.90;;;;;;5026688;28;20597;-56
2023/11/18 07:50:41;;;;;;;25.75;9.00;;;7.30;99.90;;;;;;5026435;28;20168;-48
2023/11/18 07:53:07;;;;;;;18.00;8.07;;;7.30;99.90;;;;;;5026190;28;20045;-55
2023/11/18 07:55:39;;;;;;;18.25;8.95;;;7.30;99.90;;;;;;5025956;28;20034;-52
2023/11/18 07:58:10;;;;;;;22.95;8.43;;;7.40;99.90;;;;;;5026421;28;20022;-56
2023/11/18 08:00:40;;;;;;;20.42;9.07;;;7.40;99.90;;;;;;5027343;28;20091;-55
2023/11/18 08:03:15;;;;;;;25.08;9.38;;;7.40;99.90;;;;;;5023836;28;20053;-60
2023/11/18 08:05:46;;;;;;;26.77;9.88;;;7.40;99.90;;;;;;5025834;28;20053;-56
2023/11/18 08:08:12;;;;;;;18.33;8.20;;;7.40;99.90;;;;;;5025621;28;20412;-56
2023/11/18 08:10:39;;;;;;;19.42;7.63;;;7.40;99.90;;;;;;5025037;28;20061;-55
2023/11/18 08:13:07;;;;;;;23.02;9.68;;;7.50;99.90;;;;;;5026470;28;20473;-54
2023/11/18 08:15:34;;;;;;;20.50;8.43;;;7.40;99.90;;;;;;5025369;28;20052;-54
2023/11/18 08:18:00;;;;;;;22.13;7.85;;;7.40;99.90;;;;;;5025749;28;20022;-54
2023/11/18 08:20:25;;;;;;;13.80;7.25;;;7.40;99.90;;;;;;5025751;28;20030;-44
2023/11/18 08:22:52;;;;;;;17.33;7.32;;;7.30;99.90;;;;;;5025958;28;20041;-40
2023/11/18 08:25:17;;;;;;;16.50;7.57;;;7.40;99.90;;;;;;5026541;28;20532;-39
2023/11/18 08:27:46;;;;;;;18.58;7.47;;;7.30;99.90;;;;;;5026681;28;20029;-41
2023/11/18 08:30:12;;;;;;;18.80;7.75;;;7.40;99.90;;;;;;5025542;28;20021;-39
2023/11/18 08:32:45;;;;;;;15.63;7.55;;;7.30;99.90;;;;;;5024346;28;20017;-42
2023/11/18 08:35:15;;;;;;;26.98;7.78;;;7.40;99.90;;;;;;5025842;28;20076;-39
2023/11/18 08:37:45;;;;;;;19.33;6.70;;;7.40;99.90;;;;;;5025671;28;20055;-41
2023/11/18 08:40:15;;;;;;;21.83;7.60;;;7.40;99.90;;;;;;5026085;28;20473;-38
2023/11/18 08:42:49;;;;;;;11.60;6.97;;;7.40;99.90;;;;;;5024174;28;20041;-42
2023/11/18 08:45:29;;;;;;;20.60;7.53;;;7.40;99.90;;;;;;5026086;28;20557;-39
2023/11/18 08:48:01;;;;;;;18.60;7.25;;;7.50;99.90;;;;;;5028820;28;20064;-43
2023/11/18 08:50:28;;;;;;;14.32;6.35;;;7.50;99.90;;;;;;5030023;28;20071;-41
2023/11/18 08:52:58;;;;;;;12.27;6.90;;;7.60;99.90;;;;;;5026566;28;20021;-42
2023/11/18 08:55:38;;;;;;;15.52;8.43;;;7.60;99.90;;;;;;5029720;28;20494;-41
2023/11/18 08:58:15;;;;;;;23.13;7.57;;;7.60;99.90;;;;;;5024846;28;20576;-39
2023/11/18 09:03:34;;;;;;;14.18;6.22;;;7.60;99.90;;;;;;5025978;28;20860;-39
2023/11/18 09:06:05;;;;;;;14.48;5.65;;;7.70;99.90;;;;;;5025084;28;20071;-42
2023/11/18 09:08:36;;;;;;;13.70;5.47;;;7.70;99.90;;;;;;5025434;28;20048;-37
2023/11/18 09:11:06;;;;;;;11.05;5.75;;;7.80;99.90;;;;;;5030359;28;20513;-38
2023/11/18 09:13:34;;;;;;;16.20;5.95;;;7.70;99.90;;;;;;5024331;28;20578;-38
2023/11/18 09:16:08;;;;;;;10.65;5.13;;;7.70;99.90;;;;;;5024459;28;20482;-42
2023/11/18 09:18:39;;;;;;;13.00;5.80;;;7.70;99.90;;;;;;5025659;28;20556;-38
2023/11/18 09:21:06;;;;;;;12.98;6.03;;;7.60;99.90;;;;;;5032751;28;20424;-39
2023/11/18 09:23:34;;;;;;;17.35;6.18;;;7.60;99.90;;;;;;5032266;28;20026;-38
2023/11/18 09:26:00;;;;;;;19.77;6.18;;;7.60;99.90;;;;;;5031330;28;20080;-37
2023/11/18 09:28:30;;;;;;;25.27;8.15;;;7.60;99.90;;;;;;5032178;28;20470;-39
2023/11/18 09:31:00;;;;;;;19.98;9.30;;;7.60;99.90;;;;;;5032355;28;20486;-37
2023/11/18 09:33:28;;;;;;;10.40;5.93;;;7.50;99.90;;;;;;5032556;28;20505;-39
2023/11/18 09:36:00;;;;;;;;;;;7.60;99.90;;;;;;5032717;28;20108;-37
2023/11/18 09:38:30;;;;;;;8.82;5.18;;;7.60;99.90;;;;;;5031208;28;20081;-37
2023/11/18 09:41:02;;;;;;;16.67;5.95;;;7.50;99.90;;;;;;5030915;28;20405;-37
2023/11/18 09:43:32;;;;;;;9.93;5.30;;;7.50;99.90;;;;;;5031447;28;20394;-37
2023/11/18 09:46:08;;;;;;;20.67;5.63;;;7.50;99.90;;;;;;5031808;28;20413;-37
2023/11/18 09:48:40;;;;;;;10.77;4.50;;;7.50;99.90;;;;;;5031556;28;20049;-36
2023/11/18 09:51:08;;;;;;;15.82;5.47;;;7.50;99.90;;;;;;5032564;28;20029;-39
2023/11/18 09:53:39;;;;;;;11.57;5.72;;;7.60;99.90;;;;;;5031685;28;20108;-40
2023/11/18 09:56:18;;;;;;;23.00;4.68;;;7.60;99.90;;;;;;5029404;28;20100;-37
2023/11/18 09:58:53;;;;;;;8.07;4.22;;;7.60;99.90;;;;;;5035393;28;20390;-37
2023/11/18 10:01:21;;;;;;;13.93;4.45;;;7.60;99.90;;;;;;5032546;28;20022;-38
2023/11/18 10:03:48;;;;;;;10.82;4.53;;;7.60;99.90;;;;;;5032024;28;20036;-38
2023/11/18 10:06:15;;;;;;;11.27;4.45;;;7.60;99.90;;;;;;5031676;28;20030;-38
2023/11/18 10:08:45;;;;;;;11.25;4.35;;;7.70;99.90;;;;;;5031827;28;20030;-36
2023/11/18 10:11:13;;;;;;;7.20;3.58;;;7.60;99.90;;;;;;5031946;28;20029;-38
2023/11/18 10:13:40;;;;;;;14.88;4.35;;;7.70;99.90;;;;;;5031521;28;20498;-39
2023/11/18 10:16:09;;;;;;;16.83;5.28;;;7.80;99.90;;;;;;5029743;28;20030;-39
2023/11/18 10:18:36;;;;;;;9.02;3.97;;;7.80;99.90;;;;;;5031755;28;20041;-41
2023/11/18 10:21:04;;;;;;;9.52;3.50;;;7.80;99.90;;;;;;5032330;28;20386;-36
2023/11/18 10:23:33;;;;;;;8.68;2.97;;;7.80;99.90;;;;;;5032117;28;20030;-39
2023/11/18 10:26:01;;;;;;;7.20;3.33;;;7.80;99.90;;;;;;5031899;28;20407;-39
2023/11/18 10:28:34;;;;;;;4.68;3.30;;;7.90;99.90;;;;;;5030566;28;20018;-40
2023/11/18 10:31:03;;;;;;;10.07;3.33;;;7.90;99.90;;;;;;5031488;28;20037;-37
2023/11/18 10:33:30;;;;;;;8.45;2.90;;;7.90;99.90;;;;;;5031356;28;20429;-39
2023/11/18 10:35:57;;;;;;;8.67;3.10;;;7.90;99.90;;;;;;5031165;28;20060;-38
2023/11/18 10:38:26;;;;;;;9.52;2.88;;;7.90;99.90;;;;;;5030207;28;20485;-38
2023/11/18 10:40:56;;;;;;;9.18;2.60;;;8.00;99.90;;;;;;5035611;28;20490;-38
2023/11/18 10:43:25;;;;;;;5.38;3.28;;;8.00;99.90;;;;;;5034738;28;20036;-37
2023/11/18 10:46:14;;;;;;;4.20;2.53;;;8.00;99.90;;;;;;5033376;28;20022;-41
2023/11/18 10:48:47;;;;;;;4.70;2.15;;;8.00;99.90;;;;;;5033975;28;20053;-37
2023/11/18 10:51:19;;;;;;;10.02;2.30;;;8.10;99.90;;;;;;5035897;28;20417;-38
2023/11/18 10:53:53;;;;;;;5.78;2.55;;;8.10;99.90;;;;;;5035174;28;20033;-38
2023/11/18 10:56:32;;;;;;;4.60;1.95;;;8.20;99.90;;;;;;5035041;28;20026;-38
2023/11/18 10:59:06;;;;;;;7.38;2.10;;;8.10;99.90;;;;;;5026222;28;20374;-38
2023/11/18 11:01:42;;;;;;;4.88;2.85;;;8.10;99.90;;;;;;5035340;28;20025;-37
2023/11/18 11:04:10;;;;;;;8.52;2.25;;;8.10;99.90;;;;;;5035395;28;20433;-38
2023/11/18 11:06:41;;;;;;;3.63;2.50;;;8.10;99.90;;;;;;5035138;28;20397;-41
2023/11/18 11:09:14;;;;;;;3.30;2.13;;;8.10;99.90;;;;;;5034362;28;20478;-38
2023/11/18 11:11:46;;;;;;;6.57;2.33;;;8.20;99.90;;;;;;5032100;28;20425;-37
2023/11/18 11:14:14;;;;;;;8.10;2.72;;;8.10;99.90;;;;;;5027471;28;20091;-38
2023/11/18 11:16:53;;;;;;;10.25;2.03;;;8.20;99.90;;;;;;5026449;28;20478;-37
2023/11/18 11:19:30;;;;;;;12.20;2.50;;;8.20;99.90;;;;;;5028486;28;20040;-36
2023/11/18 11:22:06;;;;;;;6.10;2.07;;;8.30;99.90;;;;;;5026811;28;20036;-37
2023/11/18 11:24:47;;;;;;;12.15;2.75;;;8.30;99.90;;;;;;5027167;28;20022;-35
2023/11/18 11:27:39;;;;;;;5.75;2.20;;;8.30;99.90;;;;;;5025657;28;20018;-35
2023/11/18 11:30:31;;;;;;;4.40;2.17;;;8.30;99.90;;;;;;5026023;28;20044;-37
2023/11/18 11:33:17;;;;;;;7.30;1.77;;;8.30;99.90;;;;;;5025974;28;20017;-37
2023/11/18 11:35:58;;;;;;;11.70;2.83;;;8.30;99.90;;;;;;5027662;28;20052;-46
2023/11/18 11:38:26;;;;;;;6.22;2.70;;;8.30;99.90;;;;;;5026902;28;20733;-51
2023/11/18 11:40:55;;;;;;;4.80;2.38;;;8.40;99.90;;;;;;5027867;28;20025;-51
2023/11/18 11:43:27;;;;;;;2.75;2.35;;;8.40;99.90;;;;;;5026833;28;20543;-46
2023/11/18 11:45:57;;;;;;;11.68;2.58;;;8.40;99.90;;;;;;5025281;28;20482;-53
2023/11/18 11:48:27;;;;;;;12.95;2.92;;;8.40;99.90;;;;;;5027004;28;20479;-49
2023/11/18 11:51:03;;;;;;;10.27;2.83;;;8.40;99.90;;;;;;5025725;28;20017;-44
2023/11/18 11:53:38;;;;;;;4.22;2.30;;;8.40;99.90;;;;;;5027686;28;20135;-51
2023/11/18 11:56:13;;;;;;;8.18;2.90;;;8.40;99.90;;;;;;5026250;28;20489;-41
2023/11/18 11:58:43;;;;;;;4.50;2.10;;;8.50;99.90;;;;;;5025418;28;20072;-49
2023/11/18 12:01:37;;;;;;;11.57;3.08;;;8.50;99.90;;;;;;5025565;28;20028;-51
2023/11/18 12:04:20;;;;;;;6.60;2.28;;;8.50;99.90;;;;;;5025882;28;20650;-45
2023/11/18 12:06:47;;;;;;;12.52;2.78;;;8.50;99.90;;;;;;5026077;28;20088;-44
2023/11/18 12:09:22;;;;;;;11.70;4.53;;;8.50;99.90;;;;;;5025301;28;20716;-49
2023/11/18 12:11:49;;;;;;;17.50;4.25;;;8.50;99.90;;;;;;5030176;28;20085;-47
2023/11/18 12:17:08;;;;;;;16.58;4.85;;;8.50;99.90;;;;;;5033905;28;20056;-50
2023/11/18 12:19:48;;;;;;;10.30;3.75;;;8.50;99.90;;;;;;5034235;28;20026;-50
2023/11/18 12:22:17;;;;;;;18.55;6.43;;;8.50;99.90;;;;;;5033457;28;20202;-50
2023/11/18 12:25:06;;;;;;;9.75;3.22;;;8.50;99.90;;;;;;5031231;28;20025;-50
2023/11/18 12:27:41;;;;;;;4.25;3.28;;;8.50;99.90;;;;;;5033750;28;20394;-49
2023/11/18 12:30:15;;;;;;;12.65;4.10;;;8.50;99.90;;;;;;5032685;28;20470;-50
2023/11/18 12:33:01;;;;;;;14.18;8.43;;;8.50;99.90;;;;;;5030423;28;20029;-52
2023/11/18 12:35:27;;;;;;;11.48;4.63;;;8.60;99.90;;;;;;5031612;28;20035;-53
2023/11/18 12:38:12;;;;;;;4.60;2.63;;;8.60;99.90;;;;;;5033807;28;20017;-50
2023/11/18 12:41:02;;;;;;;8.25;2.72;;;8.50;99.90;;;;;;5033764;28;20492;-54
2023/11/18 12:43:53;;;;;;;17.08;9.70;;;8.50;99.90;;;;;;5033047;28;20484;-53
2023/11/18 12:46:42;;;;;;;13.43;7.38;;;8.60;99.90;;;;;;5029167;28;20385;-54
2023/11/18 12:49:15;;;;;;;5.78;3.08;;;8.50;99.90;;;;;;5033787;28;20374;-53
2023/11/18 12:51:45;;;;;;;6.90;3.42;;;8.50;99.90;;;;;;5033353;28;20022;-54
2023/11/18 12:54:16;;;;;;;3.95;2.58;;;8.60;99.90;;;;;;5032466;28;20484;-49
2023/11/18 12:56:48;;;;;;;5.55;2.53;;;8.50;99.90;;;;;;5028760;28;20564;-55
2023/11/18 12:59:23;;;;;;;9.68;2.22;;;8.60;99.90;;;;;;5032357;28;20075;-52
2023/11/18 13:02:02;;;;;;;4.13;2.05;;;8.60;99.90;;;;;;5013535;28;20033;-53